createdAt,value
2023-05-15T00:02:15.434Z,2.30
2023-05-15T00:04:42.613Z,2.30
2023-05-15T00:07:09.728Z,2.50
2023-05-15T00:09:36.817Z,2.20
2023-05-15T00:12:04.421Z,2.40
2023-05-15T00:14:31.528Z,2.30
2023-05-15T00:16:58.659Z,2.70
2023-05-15T00:19:26.085Z,2.30
2023-05-15T00:21:53.889Z,2.27
2023-05-15T00:24:22.228Z,2.50
2023-05-15T00:26:49.683Z,2.80
2023-05-15T00:29:16.768Z,2.60
2023-05-15T00:31:43.874Z,2.73
2023-05-15T00:34:10.966Z,2.60
2023-05-15T00:36:38.064Z,2.50
2023-05-15T00:39:05.132Z,2.43
2023-05-15T00:41:33.215Z,2.20
2023-05-15T00:44:01.128Z,2.70
2023-05-15T00:46:28.674Z,2.20
2023-05-15T00:48:57.490Z,2.40
2023-05-15T00:51:25.248Z,2.23
2023-05-15T00:53:52.610Z,2.53
2023-05-15T00:56:20.343Z,2.60
2023-05-15T00:58:47.745Z,2.63
2023-05-15T01:01:15.712Z,2.40
2023-05-15T01:03:43.647Z,2.37
2023-05-15T01:06:11.011Z,2.60
2023-05-15T01:08:38.083Z,2.50
2023-05-15T01:11:06.338Z,2.50
2023-05-15T01:13:33.375Z,2.47
2023-05-15T01:16:00.549Z,2.50
2023-05-15T01:18:32.649Z,2.60
2023-05-15T01:21:03.058Z,2.70
2023-05-15T01:23:39.507Z,2.67
2023-05-15T01:26:09.372Z,2.57
2023-05-15T01:28:39.552Z,2.57
2023-05-15T01:31:09.855Z,2.67
2023-05-15T01:33:43.085Z,2.53
2023-05-15T01:36:22.098Z,2.60
2023-05-15T01:38:55.948Z,2.47
2023-05-15T01:41:38.049Z,3.00
2023-05-15T01:44:09.535Z,2.57
2023-05-15T01:46:39.444Z,2.80
2023-05-15T01:49:08.202Z,2.50
2023-05-15T01:51:36.963Z,2.47
2023-05-15T01:54:04.258Z,2.77
2023-05-15T01:56:31.911Z,2.70
2023-05-15T01:59:01.182Z,2.70
2023-05-15T02:01:28.721Z,2.40
2023-05-15T02:03:56.150Z,2.67
2023-05-15T02:06:23.816Z,2.63
2023-05-15T02:08:51.836Z,2.60
2023-05-15T02:11:18.961Z,2.40
2023-05-15T02:13:46.668Z,2.77
2023-05-15T02:16:13.774Z,2.77
2023-05-15T02:18:41.298Z,2.43
2023-05-15T03:04:21.806Z,2.57
2023-05-15T03:06:49.013Z,2.50
2023-05-15T03:09:16.498Z,2.70
2023-05-15T03:11:43.887Z,2.60
2023-05-15T03:14:10.965Z,2.70
2023-05-15T03:16:38.974Z,2.70
2023-05-15T03:19:06.615Z,2.93
2023-05-15T03:21:34.944Z,3.03
2023-05-15T03:24:02.311Z,3.10
2023-05-15T03:26:29.740Z,3.03
2023-05-15T03:28:56.835Z,2.97
2023-05-15T03:31:23.953Z,2.80
2023-05-15T03:33:51.548Z,2.97
2023-05-15T03:36:18.691Z,2.90
2023-05-15T03:38:45.792Z,3.20
2023-05-15T03:41:13.193Z,3.13
2023-05-15T03:43:40.377Z,3.33
2023-05-15T03:46:07.514Z,3.00
2023-05-15T03:48:35.010Z,3.27
2023-05-15T03:51:02.117Z,3.33
2023-05-15T03:53:29.197Z,3.17
2023-05-15T03:55:56.674Z,3.20
2023-05-15T03:58:23.757Z,2.90
2023-05-15T04:00:50.892Z,2.90
2023-05-15T04:03:19.380Z,2.97
2023-05-15T04:05:49.939Z,3.30
2023-05-15T04:08:17.201Z,3.00
2023-05-15T04:10:44.665Z,3.00
2023-05-15T04:13:11.765Z,3.07
2023-05-15T04:15:39.552Z,2.97
2023-05-15T04:18:06.997Z,3.00
2023-05-15T04:20:34.169Z,3.00
2023-05-15T04:23:01.367Z,2.83
2023-05-15T04:25:28.667Z,3.03
2023-05-15T04:27:56.254Z,3.07
2023-05-15T04:30:23.334Z,2.80
2023-05-15T04:32:52.255Z,3.00
2023-05-15T04:35:19.600Z,2.90
2023-05-15T04:37:46.868Z,3.00
2023-05-15T04:40:16.342Z,2.97
2023-05-15T04:42:45.028Z,2.73
2023-05-15T04:45:12.197Z,3.00
2023-05-15T04:47:39.637Z,2.87
2023-05-15T04:50:06.962Z,3.07
2023-05-15T04:52:34.210Z,2.90
2023-05-15T04:55:01.494Z,3.03
2023-05-15T04:57:28.793Z,2.93
2023-05-15T04:59:56.041Z,3.20
2023-05-15T05:02:23.700Z,3.00
2023-05-15T05:04:51.027Z,3.20
2023-05-15T05:07:18.135Z,3.27
2023-05-15T05:09:45.555Z,3.47
2023-05-15T05:12:12.672Z,3.47
2023-05-15T05:14:41.946Z,3.47
2023-05-15T05:17:09.695Z,3.40
2023-05-15T05:19:36.789Z,3.87
2023-05-15T05:22:05.284Z,3.57
2023-05-15T05:24:33.362Z,3.63
2023-05-15T05:27:00.468Z,3.50
2023-05-15T05:29:27.714Z,3.50
2023-05-15T05:31:55.790Z,3.67
2023-05-15T05:34:23.267Z,3.60
2023-05-15T05:36:51.391Z,3.20
2023-05-15T05:39:18.968Z,3.77
2023-05-15T05:41:46.097Z,4.30
2023-05-15T05:44:13.247Z,3.70
2023-05-15T05:46:40.782Z,3.63
2023-05-15T05:49:07.866Z,3.70
2023-05-15T05:51:38.582Z,3.90
2023-05-15T05:54:06.103Z,3.97
2023-05-15T05:56:33.242Z,3.90
2023-05-15T05:59:01.855Z,4.03
2023-05-15T06:01:29.425Z,3.87
2023-05-15T06:03:57.442Z,3.90
2023-05-15T06:06:24.809Z,4.17
2023-05-15T06:08:54.163Z,4.40
2023-05-15T06:11:25.020Z,4.50
2023-05-15T06:13:52.730Z,4.67
2023-05-15T06:16:19.923Z,4.37
2023-05-15T06:18:47.492Z,4.57
2023-05-15T06:21:15.015Z,4.27
2023-05-15T06:23:42.113Z,4.60
2023-05-15T06:26:09.294Z,4.40
2023-05-15T06:28:36.396Z,4.80
2023-05-15T06:31:03.514Z,4.70
2023-05-15T06:33:31.162Z,4.90
2023-05-15T06:35:58.266Z,5.00
2023-05-15T06:38:25.396Z,5.07
2023-05-15T06:40:52.442Z,5.50
2023-05-15T06:43:19.549Z,4.87
2023-05-15T06:45:46.662Z,5.00
2023-05-15T06:48:13.861Z,4.57
2023-05-15T06:50:41.290Z,5.10
2023-05-15T06:53:08.432Z,5.30
2023-05-15T06:55:36.496Z,4.80
2023-05-15T06:58:04.651Z,4.83
2023-05-15T07:00:31.928Z,5.10
2023-05-15T07:02:59.100Z,5.27
2023-05-15T07:05:26.586Z,5.50
2023-05-15T07:07:54.037Z,4.70
2023-05-15T07:10:21.136Z,4.43
2023-05-15T07:12:48.240Z,4.67
2023-05-15T07:15:17.526Z,4.90
2023-05-15T07:17:44.763Z,4.53
2023-05-15T07:20:12.075Z,5.23
2023-05-15T07:22:51.853Z,4.60
2023-05-15T07:25:23.455Z,4.10
2023-05-15T07:27:50.786Z,4.27
2023-05-15T07:30:17.876Z,4.60
2023-05-15T07:32:45.293Z,4.57
2023-05-15T07:35:12.535Z,4.43
2023-05-15T07:37:39.661Z,4.27
2023-05-15T07:40:07.669Z,5.07
2023-05-15T07:42:34.816Z,4.50
2023-05-15T07:45:02.063Z,4.83
2023-05-15T07:47:29.591Z,5.00
2023-05-15T07:49:57.079Z,4.83
2023-05-15T07:52:24.168Z,4.50
2023-05-15T07:54:51.449Z,4.67
2023-05-15T07:57:18.561Z,4.50
2023-05-15T07:59:45.796Z,4.07
2023-05-15T08:02:12.982Z,4.30
2023-05-15T08:04:40.216Z,4.37
2023-05-15T08:07:07.686Z,4.70
2023-05-15T08:09:34.771Z,4.63
2023-05-15T08:12:17.610Z,4.93
2023-05-15T08:14:45.179Z,4.50
2023-05-15T08:17:12.408Z,4.87
2023-05-15T08:19:39.500Z,5.00
2023-05-15T08:22:06.907Z,4.70
2023-05-15T08:24:34.188Z,4.43
2023-05-15T08:27:01.346Z,5.17
2023-05-15T08:29:28.449Z,4.77
2023-05-15T08:31:55.515Z,5.13
2023-05-15T08:34:22.567Z,5.20
2023-05-15T08:36:49.703Z,5.03
2023-05-15T08:39:16.806Z,4.67
2023-05-15T08:41:55.879Z,5.10
2023-05-15T08:44:23.178Z,4.97
2023-05-15T08:46:50.620Z,4.97
2023-05-15T08:49:32.649Z,4.77
2023-05-15T08:52:00.195Z,5.13
2023-05-15T08:54:27.617Z,4.97
2023-05-15T08:56:55.266Z,5.30
2023-05-15T08:59:22.544Z,5.43
2023-05-15T09:01:49.857Z,4.90
2023-05-15T09:04:17.118Z,5.53
2023-05-15T09:06:45.034Z,5.10
2023-05-15T09:09:13.584Z,5.27
2023-05-15T09:11:44.970Z,5.30
2023-05-15T09:14:12.514Z,5.10
2023-05-15T09:16:40.001Z,5.30
2023-05-15T09:19:07.764Z,5.60
2023-05-15T09:21:35.189Z,5.23
2023-05-15T09:24:25.109Z,5.43
2023-05-15T09:27:03.286Z,5.40
2023-05-15T09:29:31.340Z,5.30
2023-05-15T09:32:02.716Z,5.03
2023-05-15T09:34:31.503Z,5.30
2023-05-15T09:36:59.192Z,5.07
2023-05-15T09:39:26.250Z,6.10
2023-05-15T09:41:56.661Z,5.50
2023-05-15T09:44:27.442Z,5.83
2023-05-15T09:46:54.734Z,5.10
2023-05-15T09:49:22.057Z,5.50
2023-05-15T09:51:52.163Z,5.43
2023-05-15T09:54:19.598Z,5.87
2023-05-15T09:56:47.401Z,5.47
2023-05-15T09:59:15.749Z,5.03
2023-05-15T10:01:44.885Z,5.40
2023-05-15T10:04:12.955Z,5.20
2023-05-15T10:06:42.940Z,5.40
2023-05-15T10:09:11.258Z,5.60
2023-05-15T10:11:39.696Z,5.30
2023-05-15T10:14:07.675Z,5.07
2023-05-15T10:16:35.939Z,5.07
2023-05-15T10:19:07.098Z,4.90
2023-05-15T10:21:35.232Z,4.70
2023-05-15T10:24:02.690Z,4.73
2023-05-15T10:26:43.021Z,4.87
2023-05-15T10:29:12.225Z,5.23
2023-05-15T10:31:42.975Z,5.30
2023-05-15T10:34:11.093Z,5.00
2023-05-15T10:36:38.780Z,4.50
2023-05-15T10:39:06.528Z,4.67
2023-05-15T10:41:36.301Z,4.53
2023-05-15T10:44:03.510Z,5.10
2023-05-15T10:46:31.332Z,4.50
2023-05-15T10:48:59.220Z,4.50
2023-05-15T10:51:27.585Z,4.90
2023-05-15T10:53:55.163Z,4.77
2023-05-15T10:56:26.599Z,5.00
2023-05-15T10:58:54.561Z,4.30
2023-05-15T11:01:28.463Z,4.60
2023-05-15T11:04:06.655Z,4.50
2023-05-15T11:06:34.870Z,4.43
2023-05-15T11:09:21.304Z,4.53
2023-05-15T11:12:01.925Z,4.30
2023-05-15T11:14:32.412Z,4.53
2023-05-15T11:17:00.674Z,4.63
2023-05-15T11:19:35.610Z,4.50
2023-05-15T11:22:06.065Z,4.73
2023-05-15T11:24:34.278Z,4.53
2023-05-15T11:27:02.210Z,4.40
2023-05-15T11:29:29.363Z,4.33
2023-05-15T11:31:56.601Z,4.60
2023-05-15T11:34:31.019Z,5.07
2023-05-15T11:37:02.545Z,4.83
2023-05-15T11:39:29.704Z,4.60
2023-05-15T11:41:59.146Z,4.87
2023-05-15T11:44:26.851Z,4.77
2023-05-15T11:46:54.142Z,5.47
2023-05-15T11:49:21.332Z,5.00
2023-05-15T11:51:49.327Z,4.80
2023-05-15T11:54:17.500Z,5.23
2023-05-15T11:56:45.073Z,5.57
2023-05-15T11:59:15.421Z,5.40
2023-05-15T12:01:43.836Z,5.70
2023-05-15T12:04:14.970Z,5.67
2023-05-15T12:06:42.632Z,5.70
2023-05-15T12:09:14.030Z,5.80
2023-05-15T12:11:48.204Z,6.10
2023-05-15T12:14:15.274Z,6.23
2023-05-15T12:16:42.359Z,6.20
2023-05-15T12:19:10.674Z,6.20
2023-05-15T12:21:43.076Z,6.53
2023-05-15T12:24:12.775Z,7.00
2023-05-15T12:26:40.408Z,6.53
2023-05-15T12:29:07.989Z,7.10
2023-05-15T12:31:36.528Z,6.67
2023-05-15T12:34:03.763Z,7.00
2023-05-15T12:36:31.094Z,6.67
2023-05-15T12:38:58.666Z,6.60
2023-05-15T12:41:29.227Z,6.33
2023-05-15T12:43:56.392Z,5.87
2023-05-15T12:46:24.629Z,6.37
2023-05-15T12:48:52.382Z,6.00
2023-05-15T12:51:19.465Z,6.10
2023-05-15T12:53:47.851Z,6.90
2023-05-15T12:56:18.173Z,6.03
2023-05-15T12:58:45.376Z,6.20
2023-05-15T13:01:12.585Z,5.93
2023-05-15T13:03:40.280Z,5.60
2023-05-15T13:06:07.694Z,5.77
2023-05-15T13:08:39.975Z,5.50
2023-05-15T13:13:46.150Z,6.00
2023-05-15T13:16:23.409Z,8.17
2023-05-15T13:18:50.971Z,7.30
2023-05-15T13:21:18.555Z,9.00
2023-05-15T13:23:45.762Z,9.07
2023-05-15T13:26:12.872Z,7.83
2023-05-15T13:28:40.339Z,7.67
2023-05-15T13:31:07.435Z,7.70
2023-05-15T13:33:35.892Z,7.70
2023-05-15T13:36:03.073Z,7.77
2023-05-15T13:38:30.491Z,8.20
2023-05-15T13:40:57.601Z,8.87
2023-05-15T13:43:26.407Z,8.50
2023-05-15T13:45:53.964Z,8.87
2023-05-15T13:48:21.349Z,8.70
2023-05-15T13:50:48.413Z,8.80
2023-05-15T13:53:16.684Z,8.47
2023-05-15T13:55:45.109Z,9.47
2023-05-15T13:58:15.712Z,8.23
2023-05-15T14:00:43.915Z,8.30
2023-05-15T14:03:14.113Z,8.20
2023-05-15T14:05:42.312Z,8.50
2023-05-15T14:08:09.495Z,7.97
2023-05-15T14:10:39.391Z,8.07
2023-05-15T14:13:06.697Z,7.63
2023-05-15T14:15:33.761Z,7.87
2023-05-15T14:18:01.024Z,8.07
2023-05-15T14:20:28.347Z,8.63
2023-05-15T14:22:56.085Z,9.60
2023-05-15T14:25:24.253Z,8.10
2023-05-15T14:27:51.337Z,8.47
2023-05-15T14:30:18.592Z,8.90
2023-05-15T14:32:46.323Z,8.10
2023-05-15T14:35:13.484Z,7.83
2023-05-15T14:37:40.564Z,7.90
2023-05-15T14:40:08.348Z,7.13
2023-05-15T14:42:35.468Z,7.50
2023-05-15T14:45:02.559Z,8.07
2023-05-15T14:47:30.032Z,7.13
2023-05-15T14:49:57.211Z,6.50
2023-05-15T14:52:24.268Z,6.23
2023-05-15T14:55:04.743Z,5.73
2023-05-15T14:57:36.066Z,5.43
2023-05-15T15:00:04.997Z,5.60
2023-05-15T15:02:32.183Z,5.53
2023-05-15T15:04:59.493Z,5.93
2023-05-15T15:07:30.966Z,5.87
2023-05-15T15:09:58.009Z,5.87
2023-05-15T15:12:25.079Z,5.27
2023-05-15T15:14:52.144Z,5.37
2023-05-15T15:17:19.182Z,5.67
2023-05-15T15:19:46.277Z,5.23
2023-05-15T15:22:13.368Z,5.40
2023-05-15T15:24:40.490Z,5.37
2023-05-15T15:27:07.581Z,5.93
2023-05-15T15:29:34.965Z,5.37
2023-05-15T15:32:02.025Z,5.07
2023-05-15T15:34:29.122Z,5.67
2023-05-15T15:36:57.112Z,5.90
2023-05-15T15:39:24.154Z,5.23
2023-05-15T15:41:51.265Z,5.77
2023-05-15T15:44:18.680Z,6.00
2023-05-15T15:46:45.751Z,5.83
2023-05-15T15:49:12.822Z,6.27
2023-05-15T15:51:41.495Z,6.10
2023-05-15T15:54:08.543Z,6.10
2023-05-15T15:56:36.624Z,6.20
2023-05-15T15:59:03.882Z,6.50
2023-05-15T16:01:30.986Z,6.30
2023-05-15T16:03:58.140Z,6.73
2023-05-15T16:06:25.799Z,6.40
2023-05-15T16:08:52.852Z,7.63
2023-05-15T16:11:19.914Z,6.50
2023-05-15T16:13:47.006Z,5.97
2023-05-15T16:16:14.114Z,5.73
2023-05-15T16:18:41.308Z,5.77
2023-05-15T16:21:08.833Z,6.10
2023-05-15T16:23:36.304Z,5.90
2023-05-15T16:26:06.673Z,5.80
2023-05-15T16:28:34.068Z,6.00
2023-05-15T16:31:01.315Z,6.07
2023-05-15T16:33:28.607Z,6.47
2023-05-15T16:35:56.053Z,6.30
2023-05-15T16:38:23.287Z,6.07
2023-05-15T16:40:50.437Z,6.30
2023-05-15T16:43:17.947Z,6.20
2023-05-15T16:45:45.038Z,6.53
2023-05-15T16:48:12.239Z,6.30
2023-05-15T16:50:39.767Z,6.67
2023-05-15T16:53:07.330Z,6.07
2023-05-15T16:55:34.814Z,6.60
2023-05-15T16:58:02.024Z,6.33
2023-05-15T17:00:29.511Z,6.50
2023-05-15T17:02:56.631Z,6.57
2023-05-15T17:05:23.798Z,6.47
2023-05-15T17:07:50.883Z,6.37
2023-05-15T17:10:17.940Z,6.10
2023-05-15T17:12:45.216Z,6.10
2023-05-15T17:15:12.962Z,5.87
2023-05-15T17:17:40.065Z,6.23
2023-05-15T17:20:07.829Z,6.47
2023-05-15T17:22:34.913Z,6.63
2023-05-15T17:25:02.109Z,6.50
2023-05-15T17:27:31.037Z,6.73
2023-05-15T17:29:58.185Z,6.73
2023-05-15T17:32:25.586Z,6.67
2023-05-15T17:34:52.951Z,6.60
2023-05-15T17:37:20.160Z,6.97
2023-05-15T17:39:47.397Z,6.70
2023-05-15T17:42:14.583Z,6.47
2023-05-15T17:44:41.679Z,6.53
2023-05-15T17:47:10.166Z,6.73
2023-05-15T17:49:37.873Z,6.90
2023-05-15T17:52:05.041Z,7.00
2023-05-15T17:54:32.117Z,8.23
2023-05-15T17:56:59.627Z,7.33
2023-05-15T17:59:26.904Z,7.37
2023-05-15T18:01:54.015Z,7.37
2023-05-15T18:04:21.141Z,7.13
2023-05-15T18:06:48.444Z,6.77
2023-05-15T18:09:15.586Z,7.23
2023-05-15T18:11:42.655Z,7.10
2023-05-15T18:14:09.834Z,7.27
2023-05-15T18:16:36.927Z,7.43
2023-05-15T18:19:04.235Z,6.63
2023-05-15T18:21:31.656Z,6.93
2023-05-15T18:23:58.766Z,6.57
2023-05-15T18:26:25.951Z,6.70
2023-05-15T18:28:53.087Z,6.00
2023-05-15T18:31:20.389Z,6.27
2023-05-15T18:33:47.505Z,6.00
2023-05-15T18:36:14.693Z,5.83
2023-05-15T18:38:41.796Z,5.87
2023-05-15T18:41:08.950Z,6.43
2023-05-15T18:43:36.670Z,6.13
2023-05-15T18:46:04.161Z,6.03
2023-05-15T18:48:31.759Z,6.73
2023-05-15T18:50:58.828Z,6.53
2023-05-15T18:53:25.901Z,7.20
2023-05-15T18:55:53.233Z,6.83
2023-05-15T18:58:20.275Z,7.07
2023-05-15T19:00:47.397Z,7.30
2023-05-15T19:03:15.766Z,6.87
2023-05-15T19:05:43.039Z,7.00
2023-05-15T19:08:10.129Z,7.00
2023-05-15T19:10:37.512Z,6.67
2023-05-15T19:13:04.631Z,6.63
2023-05-15T19:15:31.787Z,6.53
2023-05-15T19:17:58.919Z,6.90
2023-05-15T19:20:26.594Z,7.17
2023-05-15T19:22:53.895Z,6.30
2023-05-15T19:25:21.105Z,7.30
2023-05-15T19:27:48.188Z,7.17
2023-05-15T19:30:15.290Z,6.60
2023-05-15T19:32:42.539Z,6.60
2023-05-15T19:35:09.747Z,6.77
2023-05-15T19:37:37.302Z,7.20
2023-05-15T19:40:05.957Z,7.03
2023-05-15T19:42:33.079Z,6.90
2023-05-15T19:45:00.262Z,6.70
2023-05-15T19:47:27.442Z,7.07
2023-05-15T19:49:54.547Z,6.63
2023-05-15T19:52:21.684Z,6.50
2023-05-15T19:54:50.207Z,6.33
2023-05-15T19:57:17.502Z,6.70
2023-05-15T19:59:45.001Z,6.80
2023-05-15T20:02:12.218Z,7.23
2023-05-15T20:04:39.370Z,7.00
2023-05-15T20:07:06.525Z,7.10
2023-05-15T20:09:33.694Z,7.30
2023-05-15T20:12:01.027Z,6.83
2023-05-15T20:14:28.128Z,7.07
2023-05-15T20:16:55.663Z,7.40
2023-05-15T20:19:24.778Z,7.37
2023-05-15T20:21:52.216Z,7.00
2023-05-15T20:24:19.360Z,6.90
2023-05-15T20:26:46.528Z,6.43
2023-05-15T20:29:13.662Z,6.20
2023-05-15T20:31:40.952Z,6.17
2023-05-15T20:34:08.309Z,6.03
2023-05-15T20:36:38.670Z,6.10
2023-05-15T20:39:07.398Z,6.60
2023-05-15T20:41:34.830Z,7.43
2023-05-15T20:44:01.942Z,7.40
2023-05-15T20:46:30.244Z,7.50
2023-05-15T20:48:57.944Z,7.73
2023-05-15T20:51:25.140Z,7.60
2023-05-15T20:53:52.293Z,7.40
2023-05-15T20:56:19.401Z,7.07
2023-05-15T20:58:46.543Z,7.07
2023-05-15T21:01:14.028Z,7.37
2023-05-15T21:03:41.280Z,6.93
2023-05-15T21:06:09.012Z,7.50
2023-05-15T21:08:36.200Z,6.83
2023-05-15T21:11:03.294Z,7.20
2023-05-15T21:13:30.481Z,7.00
2023-05-15T21:15:57.756Z,7.13
2023-05-15T21:18:24.885Z,7.17
2023-05-15T21:20:52.797Z,7.13
2023-05-15T21:23:21.410Z,7.13
2023-05-15T21:25:48.531Z,6.77
2023-05-15T21:28:15.909Z,7.27
2023-05-15T21:30:43.388Z,7.50
2023-05-15T21:33:10.739Z,6.93
2023-05-15T21:35:38.298Z,7.43
2023-05-15T21:38:05.745Z,7.20
2023-05-15T21:40:32.934Z,7.00
2023-05-15T21:43:00.041Z,6.90
2023-05-15T21:45:27.158Z,7.03
2023-05-15T21:47:54.327Z,7.53
2023-05-15T21:50:21.423Z,7.20
2023-05-15T21:52:50.888Z,7.60
2023-05-15T21:55:18.165Z,7.00
2023-05-15T21:57:45.961Z,7.17
2023-05-15T22:00:13.945Z,6.77
2023-05-15T22:02:41.178Z,6.17
2023-05-15T22:05:08.516Z,6.83
2023-05-15T22:07:35.726Z,6.43
2023-05-15T22:10:03.662Z,6.57
2023-05-15T22:12:32.235Z,6.40
2023-05-15T22:15:00.079Z,7.03
2023-05-15T22:17:30.657Z,6.57
2023-05-15T22:20:07.364Z,6.60
2023-05-15T22:22:35.575Z,6.80
2023-05-15T22:25:02.738Z,6.47
2023-05-15T22:27:30.352Z,6.57
2023-05-15T22:29:57.447Z,6.67
2023-05-15T22:32:24.723Z,6.70
2023-05-15T22:34:52.027Z,6.90
2023-05-15T22:37:19.330Z,6.50
2023-05-15T22:39:46.400Z,6.60
2023-05-15T22:42:13.876Z,6.50
2023-05-15T22:44:40.941Z,7.00
2023-05-15T22:47:08.187Z,6.50
2023-05-15T22:49:35.313Z,6.90
2023-05-15T22:52:02.570Z,7.40
2023-05-15T22:54:29.629Z,6.23
2023-05-15T22:56:57.056Z,6.40
2023-05-15T22:59:24.220Z,6.67
2023-05-15T23:01:51.398Z,6.23
2023-05-15T23:04:18.957Z,6.27
2023-05-15T23:06:46.601Z,6.87
2023-05-15T23:09:14.001Z,7.00
2023-05-15T23:11:41.772Z,7.03
2023-05-15T23:14:09.549Z,6.77
2023-05-15T23:16:36.951Z,6.37
2023-05-15T23:19:04.614Z,6.80
2023-05-15T23:21:31.731Z,6.80
2023-05-15T23:23:58.882Z,6.60
2023-05-15T23:26:26.376Z,6.90
2023-05-15T23:28:53.455Z,6.53
2023-05-15T23:31:20.804Z,6.93
2023-05-15T23:33:48.042Z,7.00
2023-05-15T23:36:15.237Z,6.50
2023-05-15T23:38:43.398Z,7.20
2023-05-15T23:41:10.896Z,6.97
2023-05-15T23:43:37.952Z,6.30
2023-05-15T23:46:05.108Z,6.30
2023-05-15T23:48:33.883Z,7.00
2023-05-15T23:51:01.096Z,6.60
2023-05-15T23:53:28.170Z,7.13
2023-05-15T23:55:55.720Z,6.93
2023-05-15T23:58:23.493Z,6.63
